createdAt,value
2018-08-11T00:00:33.538Z,15.86
2018-08-11T00:03:01.610Z,15.88
2018-08-11T00:05:29.723Z,15.86
2018-08-11T00:07:57.695Z,15.93
2018-08-11T00:10:25.689Z,15.84
2018-08-11T00:12:53.806Z,15.85
2018-08-11T00:15:21.980Z,15.87
2018-08-11T00:17:50.019Z,15.93
2018-08-11T00:20:27.219Z,15.98
2018-08-11T00:22:55.213Z,15.99
2018-08-11T00:25:23.262Z,15.88
2018-08-11T00:27:51.273Z,15.91
2018-08-11T00:30:20.407Z,15.93
2018-08-11T00:32:48.465Z,15.87
2018-08-11T00:35:16.709Z,15.78
2018-08-11T00:37:45.258Z,15.68
2018-08-11T00:40:16.029Z,15.77
2018-08-11T00:42:45.196Z,15.80
2018-08-11T00:45:14.172Z,15.65
2018-08-11T00:47:42.260Z,15.52
2018-08-11T00:50:12.881Z,15.60
2018-08-11T00:52:40.872Z,15.67
2018-08-11T00:55:10.457Z,15.68
2018-08-11T00:57:38.784Z,15.73
2018-08-11T01:00:10.564Z,15.70
2018-08-11T01:02:39.081Z,15.70
2018-08-11T01:05:09.186Z,15.82
2018-08-11T01:07:37.472Z,15.75
2018-08-11T01:10:05.948Z,15.86
2018-08-11T01:12:33.944Z,15.99
2018-08-11T01:15:02.022Z,15.96
2018-08-11T01:17:30.029Z,15.98
2018-08-11T01:19:58.025Z,16.05
2018-08-11T01:22:26.072Z,15.93
2018-08-11T01:24:54.390Z,15.91
2018-08-11T01:27:22.393Z,15.91
2018-08-11T01:29:50.429Z,15.90
2018-08-11T01:32:18.432Z,15.87
2018-08-11T01:34:46.417Z,15.89
2018-08-11T01:37:14.525Z,15.92
2018-08-11T01:39:42.509Z,15.76
2018-08-11T01:42:10.520Z,15.69
2018-08-11T01:44:38.508Z,15.81
2018-08-11T01:47:06.497Z,15.77
2018-08-11T01:49:34.548Z,15.64
2018-08-11T01:52:02.537Z,15.74
2018-08-11T01:54:30.551Z,15.78
2018-08-11T01:56:58.540Z,15.80
2018-08-11T01:59:26.528Z,15.83
2018-08-11T02:01:54.528Z,15.79
2018-08-11T02:04:22.541Z,15.72
2018-08-11T02:06:50.534Z,15.77
2018-08-11T02:09:18.633Z,15.87
2018-08-11T02:11:46.609Z,15.82
2018-08-11T02:14:14.636Z,15.83
2018-08-11T02:16:42.629Z,15.93
2018-08-11T02:19:10.636Z,16.00
2018-08-11T02:21:38.788Z,16.14
2018-08-11T02:24:06.945Z,16.13
2018-08-11T02:26:34.928Z,16.18
2018-08-11T02:29:02.976Z,16.26
2018-08-11T02:31:30.925Z,16.17
2018-08-11T02:33:58.912Z,16.11
2018-08-11T02:36:26.903Z,16.14
2018-08-11T02:38:54.906Z,16.17
2018-08-11T02:41:22.900Z,16.23
2018-08-11T02:43:50.893Z,16.41
2018-08-11T02:46:18.894Z,16.31
2018-08-11T02:48:46.889Z,16.52
2018-08-11T02:51:14.904Z,16.48
2018-08-11T02:53:42.904Z,16.36
2018-08-11T02:56:10.909Z,16.17
2018-08-11T02:58:38.916Z,16.23
2018-08-11T03:01:06.951Z,16.27
2018-08-11T03:03:34.960Z,16.37
2018-08-11T03:06:03.160Z,16.58
2018-08-11T03:08:31.235Z,16.51
2018-08-11T03:10:59.236Z,16.66
2018-08-11T03:13:27.280Z,16.61
2018-08-11T03:15:55.290Z,16.64
2018-08-11T03:18:23.323Z,16.72
2018-08-11T03:20:51.310Z,16.79
2018-08-11T03:23:19.304Z,16.94
2018-08-11T03:25:47.329Z,16.91
2018-08-11T03:28:15.333Z,17.09
2018-08-11T03:30:43.316Z,17.08
2018-08-11T03:33:11.306Z,17.20
2018-08-11T03:35:39.424Z,17.04
2018-08-11T03:38:07.485Z,16.94
2018-08-11T03:40:35.517Z,16.82
2018-08-11T03:43:03.497Z,16.84
2018-08-11T03:45:31.500Z,16.86
2018-08-11T03:47:59.494Z,16.93
2018-08-11T03:50:27.487Z,16.83
2018-08-11T03:52:55.488Z,16.84
2018-08-11T03:55:24.561Z,16.55
2018-08-11T03:57:52.575Z,16.40
2018-08-11T04:00:20.586Z,16.26
2018-08-11T04:02:48.605Z,16.35
2018-08-11T04:05:16.637Z,16.33
2018-08-11T04:07:44.670Z,16.12
2018-08-11T04:10:13.714Z,15.73
2018-08-11T04:12:41.720Z,15.90
2018-08-11T04:15:09.744Z,15.80
2018-08-11T04:17:39.854Z,15.73
2018-08-11T04:20:09.596Z,15.70
2018-08-11T04:22:37.628Z,15.65
2018-08-11T04:25:06.143Z,15.75
2018-08-11T04:27:34.161Z,15.68
2018-08-11T04:30:02.604Z,15.69
2018-08-11T04:32:30.624Z,15.68
2018-08-11T04:34:58.652Z,15.67
2018-08-11T04:37:26.808Z,15.51
2018-08-11T04:39:54.997Z,15.39
2018-08-11T04:42:23.004Z,15.35
2018-08-11T04:44:51.137Z,15.44
2018-08-11T04:47:19.140Z,15.31
2018-08-11T04:49:47.157Z,15.19
2018-08-11T04:52:15.208Z,15.40
2018-08-11T04:54:43.215Z,15.44
2018-08-11T04:57:11.251Z,15.51
2018-08-11T04:59:39.494Z,15.58
2018-08-11T05:02:07.499Z,15.42
2018-08-11T05:04:35.489Z,15.46
2018-08-11T05:07:03.597Z,15.38
2018-08-11T05:09:31.658Z,15.28
2018-08-11T05:11:59.644Z,15.22
2018-08-11T05:14:27.681Z,15.29
2018-08-11T05:16:55.667Z,15.31
2018-08-11T05:19:23.788Z,15.33
2018-08-11T05:21:51.836Z,15.09
2018-08-11T05:24:19.879Z,15.12
2018-08-11T05:26:47.901Z,15.11
2018-08-11T05:29:15.873Z,15.27
2018-08-11T05:31:43.891Z,15.19
2018-08-11T05:34:11.921Z,15.01
2018-08-11T05:36:39.908Z,15.24
2018-08-11T05:39:10.544Z,15.35
2018-08-11T05:41:38.774Z,15.67
2018-08-11T05:44:06.912Z,15.72
2018-08-11T05:46:34.918Z,15.87
2018-08-11T05:49:03.146Z,15.59
2018-08-11T05:51:31.204Z,15.58
2018-08-11T05:53:59.200Z,15.58
2018-08-11T05:56:27.242Z,15.51
2018-08-11T05:58:55.337Z,15.43
2018-08-11T06:01:23.326Z,15.46
2018-08-11T06:03:51.352Z,15.86
2018-08-11T06:06:19.341Z,17.38
2018-08-11T06:08:47.323Z,19.83
2018-08-11T06:11:15.320Z,21.82
2018-08-11T06:13:43.299Z,23.80
2018-08-11T06:16:11.319Z,25.07
2018-08-11T06:18:39.319Z,24.76
2018-08-11T06:21:07.351Z,25.19
2018-08-11T06:23:35.321Z,25.16
2018-08-11T06:26:03.340Z,24.14
2018-08-11T06:28:31.359Z,24.83
2018-08-11T06:30:59.363Z,26.40
2018-08-11T06:33:27.352Z,27.69
2018-08-11T06:35:55.369Z,27.41
2018-08-11T06:38:23.348Z,28.33
2018-08-11T06:40:51.571Z,28.35
2018-08-11T06:43:19.568Z,28.23
2018-08-11T06:45:47.576Z,28.44
2018-08-11T06:48:15.580Z,28.52
2018-08-11T06:50:43.589Z,28.97
2018-08-11T06:53:11.571Z,28.24
2018-08-11T06:55:40.449Z,27.10
2018-08-11T06:58:08.340Z,24.58
2018-08-11T07:00:36.332Z,23.69
2018-08-11T07:03:04.357Z,23.37
2018-08-11T07:05:32.340Z,22.61
2018-08-11T07:08:00.341Z,22.83
2018-08-11T07:10:28.350Z,22.66
2018-08-11T07:12:56.412Z,22.63
2018-08-11T07:15:24.425Z,22.38
2018-08-11T07:17:52.436Z,22.65
2018-08-11T07:20:20.429Z,22.64
2018-08-11T07:22:48.456Z,21.60
2018-08-11T07:25:16.437Z,20.99
2018-08-11T07:27:44.432Z,20.80
2018-08-11T07:30:12.455Z,21.37
2018-08-11T07:32:40.488Z,22.50
2018-08-11T07:35:08.489Z,22.97
2018-08-11T07:37:36.779Z,23.82
2018-08-11T07:40:05.257Z,24.55
2018-08-11T07:42:33.300Z,24.76
2018-08-11T07:45:01.307Z,24.14
2018-08-11T07:47:29.370Z,23.81
2018-08-11T07:49:57.300Z,24.21
2018-08-11T07:52:25.337Z,24.86
2018-08-11T07:54:53.335Z,24.33
2018-08-11T07:57:21.421Z,23.75
2018-08-11T07:59:49.412Z,24.47
2018-08-11T08:02:17.520Z,25.10
2018-08-11T08:04:45.549Z,24.52
2018-08-11T08:07:13.567Z,24.44
2018-08-11T08:09:41.580Z,24.29
2018-08-11T08:12:09.590Z,24.77
2018-08-11T08:14:37.599Z,24.83
2018-08-11T08:17:05.809Z,24.79
2018-08-11T08:19:33.796Z,25.80
2018-08-11T08:22:01.797Z,26.10
2018-08-11T08:24:29.789Z,25.54
2018-08-11T08:26:58.669Z,24.11
2018-08-11T08:29:26.772Z,23.36
2018-08-11T08:31:54.840Z,22.83
2018-08-11T08:34:22.882Z,22.44
2018-08-11T08:36:50.912Z,22.33
2018-08-11T08:39:18.926Z,22.00
2018-08-11T08:41:46.935Z,21.55
2018-08-11T08:44:14.933Z,21.86
2018-08-11T08:46:42.952Z,22.94
2018-08-11T08:49:10.944Z,23.73
2018-08-11T08:51:38.957Z,24.13
2018-08-11T08:54:06.966Z,24.01
2018-08-11T08:56:34.964Z,23.64
2018-08-11T08:59:02.996Z,23.55
2018-08-11T09:01:30.944Z,23.41
2018-08-11T09:03:58.947Z,22.77
2018-08-11T09:06:26.936Z,22.72
2018-08-11T09:08:54.964Z,22.95
2018-08-11T09:11:22.964Z,23.27
2018-08-11T09:13:50.956Z,23.26
2018-08-11T09:16:18.961Z,23.12
2018-08-11T09:18:46.976Z,22.74
2018-08-11T09:21:15.040Z,23.11
2018-08-11T09:23:43.014Z,23.59
2018-08-11T09:26:11.228Z,23.52
2018-08-11T09:28:39.237Z,23.20
2018-08-11T09:31:07.308Z,22.72
2018-08-11T09:33:35.346Z,22.49
2018-08-11T09:36:03.369Z,21.81
2018-08-11T09:38:31.499Z,21.72
2018-08-11T09:40:59.472Z,21.77
2018-08-11T09:43:27.740Z,21.12
2018-08-11T09:45:55.745Z,21.25
2018-08-11T09:48:23.769Z,21.35
2018-08-11T09:50:51.826Z,21.45
2018-08-11T09:53:19.833Z,21.70
2018-08-11T09:55:48.475Z,22.11
2018-08-11T09:58:16.566Z,22.37
2018-08-11T10:00:53.718Z,22.46
2018-08-11T10:03:22.062Z,22.48
2018-08-11T10:05:50.069Z,22.36
2018-08-11T10:08:18.137Z,22.00
2018-08-11T10:10:46.141Z,21.87
2018-08-11T10:13:14.226Z,21.82
2018-08-11T10:15:42.305Z,22.03
2018-08-11T10:18:10.384Z,22.19
2018-08-11T10:20:38.377Z,22.24
2018-08-11T10:23:06.392Z,22.25
2018-08-11T10:25:34.396Z,22.63
2018-08-11T10:28:02.409Z,22.72
2018-08-11T10:30:30.407Z,22.77
2018-08-11T10:32:58.442Z,22.90
2018-08-11T10:35:26.464Z,23.15
2018-08-11T10:37:54.459Z,23.04
2018-08-11T10:40:22.527Z,23.00
2018-08-11T10:42:50.513Z,22.64
2018-08-11T10:45:22.605Z,22.98
2018-08-11T10:47:51.181Z,22.85
2018-08-11T10:50:19.228Z,22.39
2018-08-11T10:52:47.232Z,22.73
2018-08-11T10:55:15.344Z,23.26
2018-08-11T10:57:43.327Z,23.54
2018-08-11T11:00:11.433Z,23.32
2018-08-11T11:02:40.202Z,23.40
2018-08-11T11:05:08.868Z,23.54
2018-08-11T11:07:36.961Z,23.50
2018-08-11T11:10:05.253Z,23.78
2018-08-11T11:15:10.880Z,24.00
2018-08-11T11:17:39.477Z,23.92
2018-08-11T11:20:09.097Z,23.98
2018-08-11T11:22:37.148Z,24.00
2018-08-11T11:25:05.220Z,23.95
2018-08-11T11:27:33.326Z,24.01
2018-08-11T11:30:01.304Z,23.94
2018-08-11T11:32:29.429Z,23.71
2018-08-11T11:34:57.440Z,23.90
2018-08-11T11:37:25.488Z,23.54
2018-08-11T11:39:53.516Z,23.60
2018-08-11T11:42:21.612Z,23.52
2018-08-11T11:44:49.624Z,23.19
2018-08-11T11:47:17.644Z,23.44
2018-08-11T11:49:45.716Z,23.45
2018-08-11T11:52:13.728Z,23.85
2018-08-11T11:54:41.732Z,23.99
2018-08-11T11:57:10.144Z,23.68
2018-08-11T11:59:38.420Z,23.54
2018-08-11T12:02:07.642Z,22.89
2018-08-11T12:04:35.575Z,22.78
2018-08-11T12:07:03.576Z,20.66
2018-08-11T12:09:31.649Z,19.23
2018-08-11T12:11:59.664Z,18.35
2018-08-11T12:14:27.740Z,18.25
2018-08-11T12:16:55.854Z,17.66
2018-08-11T12:19:23.981Z,17.51
2018-08-11T12:21:51.947Z,17.51
2018-08-11T12:24:20.029Z,17.68
2018-08-11T12:26:48.030Z,18.18
2018-08-11T12:29:16.006Z,18.51
2018-08-11T12:31:44.064Z,19.14
2018-08-11T12:34:12.162Z,19.62
2018-08-11T12:36:40.191Z,19.86
2018-08-11T12:39:09.466Z,20.01
2018-08-11T12:41:37.788Z,20.17
2018-08-11T12:44:05.788Z,20.58
2018-08-11T12:46:33.802Z,20.92
2018-08-11T12:49:01.932Z,21.12
2018-08-11T12:51:29.940Z,20.86
2018-08-11T12:53:57.953Z,20.70
2018-08-11T12:56:25.956Z,20.53
2018-08-11T12:58:53.968Z,20.66
2018-08-11T13:01:22.076Z,20.85
2018-08-11T13:03:50.093Z,21.20
2018-08-11T13:06:18.145Z,21.72
2018-08-11T13:08:46.125Z,22.09
2018-08-11T13:11:14.183Z,22.47
2018-08-11T13:13:42.177Z,22.76
2018-08-11T13:16:10.256Z,22.98
2018-08-11T13:18:38.312Z,22.47
2018-08-11T13:21:06.322Z,21.87
2018-08-11T13:23:34.384Z,21.83
2018-08-11T13:26:02.389Z,21.78
2018-08-11T13:28:30.468Z,21.24
2018-08-11T13:30:58.449Z,19.94
2018-08-11T13:33:26.452Z,18.42
2018-08-11T13:35:54.476Z,18.08
2018-08-11T13:38:22.456Z,17.95
2018-08-11T13:40:50.501Z,18.07
2018-08-11T13:43:18.488Z,17.95
2018-08-11T13:45:46.559Z,17.98
2018-08-11T13:48:14.512Z,18.34
2018-08-11T13:50:42.504Z,18.63
2018-08-11T13:53:10.560Z,18.94
2018-08-11T13:55:38.627Z,19.30
2018-08-11T13:58:06.622Z,19.70
2018-08-11T14:00:34.740Z,19.95
2018-08-11T14:03:02.723Z,20.24
2018-08-11T14:05:30.728Z,20.43
2018-08-11T14:07:58.752Z,20.66
2018-08-11T14:10:26.759Z,20.98
2018-08-11T14:12:54.749Z,20.77
2018-08-11T14:15:22.844Z,20.77
2018-08-11T14:17:50.936Z,21.13
2018-08-11T14:20:18.967Z,21.15
2018-08-11T14:22:47.040Z,21.28
2018-08-11T14:25:15.021Z,21.41
2018-08-11T14:27:43.032Z,21.41
2018-08-11T14:30:12.102Z,21.18
2018-08-11T14:32:40.413Z,20.91
2018-08-11T14:35:08.397Z,20.71
2018-08-11T14:37:36.533Z,20.58
2018-08-11T14:40:06.526Z,20.95
2018-08-11T14:42:34.544Z,20.91
2018-08-11T14:45:02.558Z,20.90
2018-08-11T14:47:30.560Z,21.05
2018-08-11T14:49:58.563Z,21.53
2018-08-11T14:52:26.601Z,21.98
2018-08-11T14:54:54.608Z,21.86
2018-08-11T14:57:22.604Z,22.04
2018-08-11T14:59:50.616Z,21.93
2018-08-11T15:02:18.644Z,21.68
2018-08-11T15:04:46.642Z,21.64
2018-08-11T15:07:14.684Z,21.21
2018-08-11T15:09:42.779Z,20.79
2018-08-11T15:12:10.925Z,20.89
2018-08-11T15:14:39.235Z,20.69
2018-08-11T15:17:07.260Z,20.56
2018-08-11T15:19:35.240Z,20.36
2018-08-11T15:22:03.252Z,20.37
2018-08-11T15:24:31.242Z,20.40
2018-08-11T15:26:59.279Z,20.30
2018-08-11T15:29:27.277Z,20.09
2018-08-11T15:31:55.278Z,20.17
2018-08-11T15:34:23.299Z,20.32
2018-08-11T15:36:51.357Z,20.50
2018-08-11T15:39:19.356Z,20.59
2018-08-11T15:41:47.358Z,20.72
2018-08-11T15:44:15.338Z,20.53
2018-08-11T15:46:43.355Z,20.46
2018-08-11T15:49:11.396Z,20.51
2018-08-11T15:51:39.410Z,20.72
2018-08-11T15:54:07.471Z,20.94
2018-08-11T15:56:35.417Z,21.17
2018-08-11T15:59:03.425Z,21.19
2018-08-11T16:01:31.425Z,21.13
2018-08-11T16:03:59.521Z,21.33
2018-08-11T16:06:27.723Z,21.43
2018-08-11T16:08:55.729Z,21.30
2018-08-11T16:11:23.727Z,21.08
2018-08-11T16:13:51.761Z,21.25
2018-08-11T16:16:19.760Z,21.39
2018-08-11T16:18:47.780Z,21.57
2018-08-11T16:21:15.777Z,21.51
2018-08-11T16:23:43.831Z,21.53
2018-08-11T16:26:11.818Z,21.53
2018-08-11T16:28:39.869Z,21.55
2018-08-11T16:31:07.861Z,21.49
2018-08-11T16:33:35.876Z,21.17
2018-08-11T16:36:03.893Z,21.27
2018-08-11T16:38:31.876Z,21.08
2018-08-11T16:40:59.895Z,21.09
2018-08-11T16:43:27.884Z,20.84
2018-08-11T16:45:55.885Z,20.90
2018-08-11T16:48:23.873Z,21.05
2018-08-11T16:50:51.872Z,21.21
2018-08-11T16:53:19.883Z,20.93
2018-08-11T16:55:47.864Z,20.97
2018-08-11T16:58:16.033Z,20.90
2018-08-11T17:03:05.316Z,20.80
2018-08-11T17:05:33.347Z,21.02
2018-08-11T17:08:01.340Z,20.99
2018-08-11T17:10:29.360Z,21.21
2018-08-11T17:12:57.352Z,21.31
2018-08-11T17:15:25.341Z,21.26
2018-08-11T17:17:53.353Z,21.15
2018-08-11T17:20:21.491Z,21.22
2018-08-11T17:22:49.560Z,21.19
2018-08-11T17:25:17.632Z,21.36
2018-08-11T17:27:45.621Z,21.44
2018-08-11T17:30:13.629Z,21.34
2018-08-11T17:32:41.616Z,21.43
2018-08-11T17:35:09.632Z,21.34
2018-08-11T17:37:37.669Z,21.07
2018-08-11T17:40:06.397Z,21.06
2018-08-11T17:42:34.450Z,20.97
2018-08-11T17:45:02.508Z,20.95
2018-08-11T17:47:30.520Z,20.89
2018-08-11T17:49:58.608Z,21.00
2018-08-11T17:52:26.752Z,20.91
2018-08-11T17:54:54.787Z,21.03
2018-08-11T17:57:22.849Z,21.10
2018-08-11T17:59:50.893Z,21.08
2018-08-11T18:02:18.907Z,21.06
2018-08-11T18:04:46.987Z,21.05
2018-08-11T18:07:21.760Z,20.68
2018-08-11T18:09:50.998Z,20.65
2018-08-11T18:12:19.052Z,20.67
2018-08-11T18:14:47.525Z,20.30
2018-08-11T18:17:16.591Z,20.50
2018-08-11T18:19:44.646Z,20.45
2018-08-11T18:22:12.978Z,20.38
2018-08-11T18:24:41.000Z,20.40
2018-08-11T18:27:09.016Z,20.38
2018-08-11T18:29:37.017Z,20.35
2018-08-11T18:32:05.073Z,20.41
2018-08-11T18:34:33.112Z,20.41
2018-08-11T18:37:01.172Z,20.42
2018-08-11T18:39:29.241Z,20.34
2018-08-11T18:41:57.230Z,20.21
2018-08-11T18:44:25.225Z,20.22
2018-08-11T18:46:53.228Z,20.14
2018-08-11T18:49:21.426Z,20.21
2018-08-11T18:51:51.147Z,20.12
2018-08-11T18:54:19.284Z,20.08
2018-08-11T18:56:47.324Z,20.03
2018-08-11T18:59:15.431Z,20.02
2018-08-11T19:01:43.805Z,19.99
2018-08-11T19:04:11.844Z,19.93
2018-08-11T19:06:39.981Z,19.87
2018-08-11T19:09:09.968Z,19.82
2018-08-11T19:11:38.242Z,19.72
2018-08-11T19:14:06.434Z,19.59
2018-08-11T19:16:34.587Z,19.39
2018-08-11T19:19:02.624Z,19.31
2018-08-11T19:21:30.644Z,19.25
2018-08-11T19:23:58.716Z,19.17
2018-08-11T19:26:26.748Z,19.08
2018-08-11T19:28:54.800Z,18.98
2018-08-11T19:31:22.855Z,18.95
2018-08-11T19:33:50.869Z,18.88
2018-08-11T19:36:18.892Z,18.84
2018-08-11T19:38:47.992Z,18.78
2018-08-11T19:41:16.073Z,18.73
2018-08-11T19:43:44.089Z,18.68
2018-08-11T19:46:12.182Z,18.62
2018-08-11T19:48:40.171Z,18.53
2018-08-11T19:51:08.271Z,18.45
2018-08-11T19:53:36.244Z,18.31
2018-08-11T19:56:04.578Z,18.22
2018-08-11T19:58:32.572Z,18.10
2018-08-11T20:01:00.583Z,18.04
2018-08-11T20:03:28.709Z,18.00
2018-08-11T20:05:56.728Z,17.83
2018-08-11T20:08:24.817Z,17.76
2018-08-11T20:10:53.097Z,17.65
2018-08-11T20:13:21.133Z,17.63
2018-08-11T20:15:49.234Z,17.53
2018-08-11T20:18:17.348Z,17.49
2018-08-11T20:20:45.374Z,17.36
2018-08-11T20:23:13.364Z,17.33
2018-08-11T20:25:41.462Z,17.27
2018-08-11T20:28:10.798Z,17.20
2018-08-11T20:30:38.793Z,17.12
2018-08-11T20:33:06.841Z,17.01
2018-08-11T20:35:34.936Z,16.99
2018-08-11T20:38:02.941Z,16.94
2018-08-11T20:40:30.960Z,16.91
2018-08-11T20:42:59.085Z,16.91
2018-08-11T20:45:27.084Z,16.92
2018-08-11T20:47:55.190Z,16.90
2018-08-11T20:50:23.249Z,16.82
2018-08-11T20:52:51.233Z,16.64
2018-08-11T20:55:19.312Z,16.65
2018-08-11T20:57:47.381Z,16.67
2018-08-11T21:00:15.460Z,16.71
2018-08-11T21:02:43.500Z,16.57
2018-08-11T21:05:13.762Z,16.57
2018-08-11T21:07:41.745Z,16.53
2018-08-11T21:10:12.563Z,16.49
2018-08-11T21:12:41.338Z,16.43
2018-08-11T21:15:09.988Z,16.37
2018-08-11T21:17:38.405Z,16.34
2018-08-11T21:20:08.277Z,16.30
2018-08-11T21:22:36.536Z,16.28
2018-08-11T21:25:05.483Z,16.17
2018-08-11T21:27:33.553Z,16.07
2018-08-11T21:30:01.645Z,16.06
2018-08-11T21:32:29.640Z,16.00
2018-08-11T21:34:57.664Z,15.91
2018-08-11T21:37:25.739Z,15.85
2018-08-11T21:39:53.794Z,15.83
2018-08-11T21:42:21.793Z,15.76
2018-08-11T21:44:50.256Z,15.75
2018-08-11T21:47:18.432Z,15.68
2018-08-11T21:49:46.505Z,15.63
2018-08-11T21:52:14.497Z,15.64
2018-08-11T21:54:42.492Z,15.59
2018-08-11T21:57:10.493Z,15.56
2018-08-11T21:59:38.481Z,15.55
2018-08-11T22:02:06.583Z,15.52
2018-08-11T22:04:35.488Z,15.51
2018-08-11T22:07:05.342Z,15.49
2018-08-11T22:09:33.314Z,15.49
2018-08-11T22:12:01.604Z,15.42
2018-08-11T22:14:29.643Z,15.40
2018-08-11T22:16:57.637Z,15.40
2018-08-11T22:19:25.674Z,15.26
2018-08-11T22:21:53.864Z,15.28
2018-08-11T22:24:21.853Z,15.30
2018-08-11T22:26:49.890Z,15.31
2018-08-11T22:29:17.929Z,15.31
2018-08-11T22:31:45.936Z,15.32
2018-08-11T22:34:13.974Z,15.27
2018-08-11T22:36:41.990Z,15.23
2018-08-11T22:39:11.130Z,15.18
2018-08-11T22:41:39.165Z,15.15
2018-08-11T22:44:07.145Z,15.18
2018-08-11T22:46:35.439Z,15.12
2018-08-11T22:49:03.589Z,15.12
2018-08-11T22:51:31.680Z,15.15
2018-08-11T22:53:59.680Z,15.18
2018-08-11T22:56:27.656Z,15.11
2018-08-11T22:58:55.727Z,15.05
2018-08-11T23:01:23.717Z,15.04
2018-08-11T23:03:51.712Z,15.07
2018-08-11T23:06:19.709Z,15.04
2018-08-11T23:08:47.694Z,15.01
2018-08-11T23:11:15.765Z,15.00
2018-08-11T23:13:43.772Z,14.97
2018-08-11T23:16:11.784Z,14.93
2018-08-11T23:18:39.833Z,14.88
2018-08-11T23:21:07.866Z,14.82
2018-08-11T23:23:35.957Z,14.64
2018-08-11T23:26:04.016Z,14.64
2018-08-11T23:28:32.012Z,14.66
2018-08-11T23:31:00.001Z,14.64
2018-08-11T23:33:28.068Z,14.62
2018-08-11T23:35:56.194Z,14.60
2018-08-11T23:38:24.185Z,14.56
2018-08-11T23:40:52.161Z,14.53
2018-08-11T23:43:20.156Z,14.47
2018-08-11T23:45:48.208Z,14.46
2018-08-11T23:48:16.301Z,14.46
2018-08-11T23:50:44.292Z,14.38
2018-08-11T23:53:12.300Z,14.30
2018-08-11T23:55:40.388Z,14.35
2018-08-11T23:58:08.392Z,14.28
